Autopride — CQQE — position and weather

sailwx.info

Track history (hours):
 
Tides and Currents Weather Stations Pressure Air Temp Water Temp Dewpoint Dewpoint Depression Visibility Wind Speed Wind Dir Waves Ship Positions

Autopride

Last reported at 2015-Mar-28 02:33 UTC. Time now 2015-Mar-28 11:04 UTC.
Position N 51°23' W 003°04'.

Length 125 m; draft 4.8 m.

Type: Cargo ship. MMSI: 255801560.

Date/timePositionNaut miles runAvg speedWind from/ knotsBaromVisibWave heightAir tempDewpointWater temp
2015-Mar-28 02:33N 51°23' W 003°04'1414.2
2015-Mar-28 01:33N 51°30' W 002°44'1 0.9
2015-Mar-28 00:33N 51°30' W 002°43'0 0.0
2015-Mar-27 23:33N 51°30' W 002°43'0 0.0
2015-Mar-27 22:33N 51°30' W 002°43'0 0.0
2015-Mar-27 21:33N 51°30' W 002°43'0 0.0
2015-Mar-27 20:33N 51°30' W 002°43'0 0.0
2015-Mar-27 19:33N 51°30' W 002°43'0 0.0
2015-Mar-27 18:33N 51°30' W 002°43'0 0.0
2015-Mar-27 17:33N 51°30' W 002°43'0 0.0
2015-Mar-27 16:33N 51°30' W 002°43'0 0.0
2015-Mar-27 15:33N 51°30' W 002°43'0 0.0
2015-Mar-27 14:33N 51°30' W 002°43'0 0.0
2015-Mar-27 13:33N 51°30' W 002°43'0 0.0
2015-Mar-27 12:33N 51°30' W 002°43'0 0.0
2015-Mar-27 11:33N 51°30' W 002°43'1 1.2
2015-Mar-27 10:33N 51°30' W 002°45'1414.5
2015-Mar-27 09:33N 51°23' W 003°05'88 9.7
2015-Mar-27 00:30N 50°44' W 005°11'9 9.6
2015-Mar-26 23:33N 50°38' W 005°21'10 9.8
2015-Mar-26 22:33N 50°31' W 005°33'10 9.8
2015-Mar-26 21:33N 50°25' W 005°45'449 9.4
2015-Mar-24 21:31N 43°23' W 001°57'2 0.2
2015-Mar-24 12:22N 43°21' W 001°57'6 6.7
2015-Mar-24 11:30N 43°26' W 001°60'436 8.4
2015-Mar-22 07:31N 50°33' E 000°09'1313.2
2015-Mar-22 06:34N 50°37' E 000°28'1414.0
2015-Mar-22 05:34N 50°43' E 000°47'1413.6
2015-Mar-22 04:33N 50°52' E 001°04'1212.4
2015-Mar-22 03:33N 51°00' E 001°19'1010.5
2015-Mar-22 02:33N 51°07' E 001°32'9 9.1
2015-Mar-22 01:33N 51°12' E 001°43'1010.1
2015-Mar-22 00:34N 51°20' E 001°54'9 9.0
2015-Mar-21 23:34N 51°23' E 002°08'1211.7
2015-Mar-21 22:33N 51°22' E 002°26'1211.9
2015-Mar-21 21:33N 51°22' E 002°46'1413.6
2015-Mar-21 20:32N 51°24' E 003°07'5 5.3
2015-Mar-21 19:34N 51°20' E 003°13'1 0.5
2015-Mar-21 18:31N 51°19' E 003°13'0 0.0
2015-Mar-21 17:31N 51°19' E 003°13'0 0.0
2015-Mar-21 16:30N 51°19' E 003°13'0 0.0
2015-Mar-21 15:33N 51°19' E 003°13'0 0.0
2015-Mar-21 14:33N 51°19' E 003°13'0 0.0
2015-Mar-21 13:33N 51°19' E 003°13'0 0.0
2015-Mar-21 12:33N 51°19' E 003°13'0 0.0
2015-Mar-21 11:30N 51°19' E 003°13'0 0.0
2015-Mar-21 10:33N 51°19' E 003°13'0 0.0
2015-Mar-21 09:33N 51°19' E 003°13'0 0.0
2015-Mar-21 08:33N 51°19' E 003°13'0 0.0
2015-Mar-21 07:33N 51°19' E 003°13'0 0.0
2015-Mar-21 06:34N 51°19' E 003°13'1 0.5
2015-Mar-21 05:33N 51°19' E 003°13'2 1.8
2015-Mar-21 04:34N 51°21' E 003°12'1110.7
2015-Mar-21 03:34N 51°22' E 002°55'1313.4
2015-Mar-21 02:33N 51°22' E 002°34'1515.2
2015-Mar-21 01:33N 51°16' E 002°12'1211.7
2015-Mar-21 00:34N 51°10' E 001°55'1313.1
2015-Mar-20 23:33N 51°01' E 001°40'1515.0
2015-Mar-20 22:32N 50°48' E 001°27'1913.9
2015-Mar-20 21:12N 50°34' E 001°08'1314.9
2015-Mar-20 20:20N 50°28' E 000°50'1714.7
2015-Mar-20 19:09N 50°23' E 000°24'6410.5
2015-Mar-20 13:03N 50°06' W 001°13'6 9.7
2015-Mar-20 12:25N 50°05' W 001°23'1311.1
2015-Mar-20 11:14N 50°01' W 001°42'39310.1
2015-Mar-18 20:21N 43°28' W 002°01'1011.2
2015-Mar-18 19:26N 43°19' W 001°55'2 0.3
2015-Mar-18 11:27N 43°21' W 001°56'8 9.3
2015-Mar-18 10:33N 43°28' W 002°02'9 8.1
2015-Mar-18 09:28N 43°36' W 002°07'1310.3
2015-Mar-18 08:10N 43°48' W 002°16'  
Track history (hours):
 
Tides and Currents Weather Stations Pressure Air Temp Water Temp Dewpoint Dewpoint Depression Visibility Wind Speed Wind Dir Waves Ship Positions

Autopride

Last reported at 2015-Mar-28 02:33 UTC. Time now 2015-Mar-28 11:04 UTC.
Position N 51°23' W 003°04'.

Length 125 m; draft 4.8 m.

Type: Cargo ship. MMSI: 255801560.

Date/timePositionNaut miles runAvg speedWind from/ knotsBaromVisibWave heightAir tempDewpointWater temp
2015-Mar-28 02:33N 51°23' W 003°04'1414.2
2015-Mar-28 01:33N 51°30' W 002°44'1 0.9
2015-Mar-28 00:33N 51°30' W 002°43'0 0.0
2015-Mar-27 23:33N 51°30' W 002°43'0 0.0
2015-Mar-27 22:33N 51°30' W 002°43'0 0.0
2015-Mar-27 21:33N 51°30' W 002°43'0 0.0
2015-Mar-27 20:33N 51°30' W 002°43'0 0.0
2015-Mar-27 19:33N 51°30' W 002°43'0 0.0
2015-Mar-27 18:33N 51°30' W 002°43'0 0.0
2015-Mar-27 17:33N 51°30' W 002°43'0 0.0
2015-Mar-27 16:33N 51°30' W 002°43'0 0.0
2015-Mar-27 15:33N 51°30' W 002°43'0 0.0
2015-Mar-27 14:33N 51°30' W 002°43'0 0.0
2015-Mar-27 13:33N 51°30' W 002°43'0 0.0
2015-Mar-27 12:33N 51°30' W 002°43'0 0.0
2015-Mar-27 11:33N 51°30' W 002°43'1 1.2
2015-Mar-27 10:33N 51°30' W 002°45'1414.5
2015-Mar-27 09:33N 51°23' W 003°05'88 9.7
2015-Mar-27 00:30N 50°44' W 005°11'9 9.6
2015-Mar-26 23:33N 50°38' W 005°21'10 9.8
2015-Mar-26 22:33N 50°31' W 005°33'10 9.8
2015-Mar-26 21:33N 50°25' W 005°45'449 9.4
2015-Mar-24 21:31N 43°23' W 001°57'2 0.2
2015-Mar-24 12:22N 43°21' W 001°57'6 6.7
2015-Mar-24 11:30N 43°26' W 001°60'436 8.4
2015-Mar-22 07:31N 50°33' E 000°09'1313.2
2015-Mar-22 06:34N 50°37' E 000°28'1414.0
2015-Mar-22 05:34N 50°43' E 000°47'1413.6
2015-Mar-22 04:33N 50°52' E 001°04'1212.4
2015-Mar-22 03:33N 51°00' E 001°19'1010.5
2015-Mar-22 02:33N 51°07' E 001°32'9 9.1
2015-Mar-22 01:33N 51°12' E 001°43'1010.1
2015-Mar-22 00:34N 51°20' E 001°54'9 9.0
2015-Mar-21 23:34N 51°23' E 002°08'1211.7
2015-Mar-21 22:33N 51°22' E 002°26'1211.9
2015-Mar-21 21:33N 51°22' E 002°46'1413.6
2015-Mar-21 20:32N 51°24' E 003°07'5 5.3
2015-Mar-21 19:34N 51°20' E 003°13'1 0.5
2015-Mar-21 18:31N 51°19' E 003°13'0 0.0
2015-Mar-21 17:31N 51°19' E 003°13'0 0.0
2015-Mar-21 16:30N 51°19' E 003°13'0 0.0
2015-Mar-21 15:33N 51°19' E 003°13'0 0.0
2015-Mar-21 14:33N 51°19' E 003°13'0 0.0
2015-Mar-21 13:33N 51°19' E 003°13'0 0.0
2015-Mar-21 12:33N 51°19' E 003°13'0 0.0
2015-Mar-21 11:30N 51°19' E 003°13'0 0.0
2015-Mar-21 10:33N 51°19' E 003°13'0 0.0
2015-Mar-21 09:33N 51°19' E 003°13'0 0.0
2015-Mar-21 08:33N 51°19' E 003°13'0 0.0
2015-Mar-21 07:33N 51°19' E 003°13'0 0.0
2015-Mar-21 06:34N 51°19' E 003°13'1 0.5
2015-Mar-21 05:33N 51°19' E 003°13'2 1.8
2015-Mar-21 04:34N 51°21' E 003°12'1110.7
2015-Mar-21 03:34N 51°22' E 002°55'1313.4
2015-Mar-21 02:33N 51°22' E 002°34'1515.2
2015-Mar-21 01:33N 51°16' E 002°12'1211.7
2015-Mar-21 00:34N 51°10' E 001°55'1313.1
2015-Mar-20 23:33N 51°01' E 001°40'1515.0
2015-Mar-20 22:32N 50°48' E 001°27'1913.9
2015-Mar-20 21:12N 50°34' E 001°08'1314.9
2015-Mar-20 20:20N 50°28' E 000°50'1714.7
2015-Mar-20 19:09N 50°23' E 000°24'6410.5
2015-Mar-20 13:03N 50°06' W 001°13'6 9.7
2015-Mar-20 12:25N 50°05' W 001°23'1311.1
2015-Mar-20 11:14N 50°01' W 001°42'39310.1
2015-Mar-18 20:21N 43°28' W 002°01'1011.2
2015-Mar-18 19:26N 43°19' W 001°55'2 0.3
2015-Mar-18 11:27N 43°21' W 001°56'8 9.3
2015-Mar-18 10:33N 43°28' W 002°02'9 8.1
2015-Mar-18 09:28N 43°36' W 002°07'1310.3
2015-Mar-18 08:10N 43°48' W 002°16'  

Dump ship's entire track history